createdAt,value
2018-11-28T00:00:02.030Z,73.09
2018-11-28T00:02:35.039Z,72.81
2018-11-28T00:05:10.003Z,72.84
2018-11-28T00:07:55.623Z,73.37
2018-11-28T00:10:32.592Z,72.01
2018-11-28T00:13:11.078Z,72.51
2018-11-28T00:15:42.019Z,72.14
2018-11-28T00:18:13.955Z,72.12
2018-11-28T00:20:51.088Z,72.27
2018-11-28T00:23:22.077Z,72.00
2018-11-28T00:25:58.704Z,71.22
2018-11-28T00:28:25.313Z,71.58
2018-11-28T00:31:01.027Z,71.07
2018-11-28T00:33:34.164Z,71.68
2018-11-28T00:36:07.167Z,71.96
2018-11-28T00:38:38.142Z,71.73
2018-11-28T00:41:10.202Z,71.82
2018-11-28T00:43:43.822Z,71.54
2018-11-28T00:46:15.483Z,71.71
2018-11-28T00:48:46.424Z,71.65
2018-11-28T00:51:18.472Z,72.34
2018-11-28T00:53:53.911Z,71.76
2018-11-28T00:56:25.355Z,72.02
2018-11-28T00:58:57.125Z,72.03
2018-11-28T01:01:28.160Z,72.34
2018-11-28T01:04:00.386Z,72.36
2018-11-28T01:06:31.178Z,72.70
2018-11-28T01:09:04.263Z,73.14
2018-11-28T01:11:36.084Z,73.12
2018-11-28T01:14:07.392Z,72.98
2018-11-28T01:16:38.091Z,73.24
2018-11-28T01:19:08.670Z,73.32
2018-11-28T01:21:39.471Z,73.41
2018-11-28T01:24:10.239Z,73.05
2018-11-28T01:26:41.092Z,72.96
2018-11-28T01:29:11.664Z,72.82
2018-11-28T01:31:45.047Z,72.60
2018-11-28T01:34:18.692Z,72.70
2018-11-28T01:36:54.000Z,72.28
2018-11-28T01:39:25.405Z,72.61
2018-11-28T01:41:56.282Z,71.58
2018-11-28T01:44:36.422Z,72.16
2018-11-28T01:47:09.470Z,71.97
2018-11-28T01:49:40.559Z,72.14
2018-11-28T01:52:13.585Z,72.20
2018-11-28T01:54:44.732Z,71.63
2018-11-28T01:57:17.582Z,72.27
2018-11-28T01:59:48.406Z,71.70
2018-11-28T02:02:19.444Z,71.47
2018-11-28T02:04:52.547Z,71.70
2018-11-28T02:07:24.423Z,71.19
2018-11-28T02:09:56.668Z,71.16
2018-11-28T02:12:27.559Z,71.42
2018-11-28T02:14:58.413Z,70.75
2018-11-28T02:17:31.786Z,70.20
2018-11-28T02:20:08.688Z,70.33
2018-11-28T02:22:39.278Z,70.77
2018-11-28T02:25:12.010Z,70.25
2018-11-28T02:27:55.395Z,70.30
2018-11-28T02:30:26.068Z,70.36
2018-11-28T02:32:57.047Z,70.64
2018-11-28T02:35:28.919Z,70.50
2018-11-28T02:38:01.613Z,70.38
2018-11-28T02:40:32.513Z,70.20
2018-11-28T02:43:08.365Z,70.84
2018-11-28T02:45:40.019Z,70.14
2018-11-28T02:48:14.240Z,70.06
2018-11-28T02:50:55.696Z,70.04
2018-11-28T02:53:28.787Z,70.05
2018-11-28T02:55:59.687Z,70.02
2018-11-28T02:58:31.702Z,69.51
2018-11-28T03:01:03.863Z,70.18
2018-11-28T03:03:34.784Z,69.91
2018-11-28T03:06:06.205Z,69.71
2018-11-28T03:08:38.941Z,69.18
2018-11-28T03:11:12.531Z,69.90
2018-11-28T03:13:45.660Z,70.04
2018-11-28T03:16:19.637Z,69.07
2018-11-28T03:18:50.307Z,69.42
2018-11-28T03:21:22.965Z,69.68
2018-11-28T03:23:54.997Z,69.81
2018-11-28T03:26:27.994Z,70.11
2018-11-28T03:28:59.092Z,69.53
2018-11-28T03:31:30.159Z,69.40
2018-11-28T03:34:01.640Z,69.71
2018-11-28T03:36:34.646Z,69.43
2018-11-28T03:39:09.578Z,69.36
2018-11-28T03:41:45.015Z,69.66
2018-11-28T03:44:15.836Z,69.83
2018-11-28T03:46:46.094Z,68.92
2018-11-28T03:49:17.031Z,69.23
2018-11-28T03:51:47.859Z,69.35
2018-11-28T03:54:18.773Z,69.31
2018-11-28T03:56:49.396Z,69.42
2018-11-28T03:59:23.806Z,69.22
2018-11-28T04:01:59.672Z,69.31
2018-11-28T04:04:34.877Z,69.07
2018-11-28T04:07:05.942Z,68.84
2018-11-28T04:09:37.090Z,68.73
2018-11-28T04:12:13.658Z,69.12
2018-11-28T04:14:53.790Z,68.87
2018-11-28T04:17:27.012Z,69.09
2018-11-28T04:20:01.032Z,68.34
2018-11-28T04:22:35.125Z,68.70
2018-11-28T04:25:09.862Z,68.89
2018-11-28T04:27:41.230Z,68.46
2018-11-28T04:30:17.015Z,68.93
2018-11-28T04:32:49.723Z,68.84
2018-11-28T04:38:16.783Z,68.99
2018-11-28T04:40:48.764Z,68.92
2018-11-28T04:43:19.589Z,68.95
2018-11-28T04:45:52.287Z,68.66
2018-11-28T04:48:25.351Z,69.23
2018-11-28T04:50:58.402Z,69.04
2018-11-28T04:53:32.009Z,68.95
2018-11-28T04:56:08.025Z,68.92
2018-11-28T04:58:50.163Z,69.08
2018-11-28T05:01:24.190Z,69.14
2018-11-28T05:03:55.146Z,69.39
2018-11-28T05:07:35.963Z,69.57
2018-11-28T05:10:41.124Z,69.95
2018-11-28T05:13:13.235Z,69.63
2018-11-28T05:15:46.670Z,69.68
2018-11-28T05:18:22.100Z,69.38
2018-11-28T05:20:55.374Z,69.27
2018-11-28T05:23:26.563Z,69.90
2018-11-28T05:25:58.436Z,69.54
2018-11-28T05:28:30.386Z,70.01
2018-11-28T05:31:01.947Z,69.69
2018-11-28T05:33:32.788Z,69.51
2018-11-28T05:36:05.668Z,69.71
2018-11-28T05:38:39.371Z,70.29
2018-11-28T05:41:10.515Z,69.69
2018-11-28T05:43:43.054Z,69.30
2018-11-28T05:46:14.662Z,69.68
2018-11-28T05:48:45.320Z,69.53
2018-11-28T05:51:15.979Z,69.87
2018-11-28T05:53:47.034Z,68.97
2018-11-28T05:56:19.169Z,69.25
2018-11-28T05:58:51.299Z,68.72
2018-11-28T06:01:21.865Z,69.05
2018-11-28T06:03:52.664Z,69.08
2018-11-28T06:06:23.676Z,69.23
2018-11-28T06:08:54.182Z,68.52
2018-11-28T06:11:25.312Z,68.46
2018-11-28T06:13:56.016Z,68.60
2018-11-28T06:16:28.530Z,68.22
2018-11-28T06:18:59.833Z,68.59
2018-11-28T06:21:34.114Z,68.27
2018-11-28T06:24:09.754Z,68.38
2018-11-28T06:26:40.537Z,68.34
2018-11-28T06:29:13.944Z,68.50
2018-11-28T06:31:44.627Z,68.63
2018-11-28T06:34:15.151Z,68.77
2018-11-28T06:36:45.406Z,68.93
2018-11-28T06:39:16.207Z,68.92
2018-11-28T06:41:46.756Z,68.70
2018-11-28T06:44:17.562Z,69.19
2018-11-28T06:46:48.207Z,69.05
2018-11-28T06:49:18.740Z,68.53
2018-11-28T06:51:49.502Z,68.55
2018-11-28T06:54:20.119Z,68.36
2018-11-28T06:56:51.648Z,67.90
2018-11-28T06:59:22.462Z,68.00
2018-11-28T07:02:00.280Z,68.40
2018-11-28T07:04:38.589Z,68.75
2018-11-28T07:07:09.401Z,67.94
2018-11-28T07:09:40.230Z,68.38
2018-11-28T07:12:11.069Z,68.05
2018-11-28T07:14:41.747Z,67.86
2018-11-28T07:17:13.080Z,67.81
2018-11-28T07:19:45.902Z,67.71
2018-11-28T07:22:16.739Z,67.14
2018-11-28T07:24:49.911Z,67.52
2018-11-28T07:27:24.083Z,67.52
2018-11-28T07:29:54.940Z,67.54
2018-11-28T07:32:25.800Z,66.92
2018-11-28T07:34:58.951Z,66.95
2018-11-28T07:37:32.053Z,66.95
2018-11-28T07:40:03.221Z,66.78
2018-11-28T07:42:33.850Z,66.58
2018-11-28T07:45:05.197Z,67.09
2018-11-28T07:47:38.078Z,66.92
2018-11-28T07:50:13.147Z,66.63
2018-11-28T07:52:45.092Z,66.38
2018-11-28T07:55:19.805Z,66.05
2018-11-28T07:57:53.273Z,66.39
2018-11-28T08:00:25.871Z,66.12
2018-11-28T08:02:59.153Z,66.17
2018-11-28T08:05:39.543Z,65.97
2018-11-28T08:08:11.391Z,66.13
2018-11-28T08:10:41.700Z,65.98
2018-11-28T08:13:13.025Z,66.18
2018-11-28T08:15:43.409Z,66.25
2018-11-28T08:18:13.932Z,66.21
2018-11-28T08:20:44.785Z,65.55
2018-11-28T08:23:15.554Z,66.07
2018-11-28T08:25:46.156Z,65.67
2018-11-28T08:28:19.515Z,65.81
2018-11-28T08:30:50.822Z,65.34
2018-11-28T08:33:25.682Z,65.35
2018-11-28T08:35:56.956Z,65.28
2018-11-28T08:38:29.195Z,64.39
2018-11-28T08:41:03.567Z,65.02
2018-11-28T08:43:35.035Z,64.30
2018-11-28T08:46:05.828Z,64.65
2018-11-28T08:48:36.360Z,63.82
2018-11-28T08:51:06.805Z,63.76
2018-11-28T08:53:37.710Z,63.63
2018-11-28T08:56:08.303Z,63.97
2018-11-28T08:58:38.807Z,63.61
2018-11-28T09:01:09.311Z,63.05
2018-11-28T09:03:40.021Z,62.84
2018-11-28T09:06:10.997Z,63.08
2018-11-28T09:08:41.542Z,62.28
2018-11-28T09:11:11.869Z,62.72
2018-11-28T09:13:42.741Z,63.07
2018-11-28T09:16:13.266Z,62.69
2018-11-28T09:18:44.477Z,62.38
2018-11-28T09:21:15.456Z,62.11
2018-11-28T09:23:46.769Z,62.02
2018-11-28T09:26:19.246Z,61.91
2018-11-28T09:28:50.691Z,61.62
2018-11-28T09:31:26.451Z,61.26
2018-11-28T09:33:59.512Z,61.44
2018-11-28T09:36:32.276Z,61.21
2018-11-28T09:39:06.159Z,61.28
2018-11-28T09:41:38.250Z,60.71
2018-11-28T09:44:10.458Z,61.19
2018-11-28T09:46:46.515Z,60.25
2018-11-28T09:49:19.499Z,60.27
2018-11-28T09:51:50.612Z,60.49
2018-11-28T09:54:22.667Z,59.90
2018-11-28T09:56:54.298Z,59.97
2018-11-28T09:59:28.378Z,59.85
2018-11-28T10:02:03.511Z,56.14
2018-11-28T10:04:39.415Z,53.64
2018-11-28T10:07:12.693Z,52.47
2018-11-28T10:09:43.365Z,51.85
2018-11-28T10:12:14.339Z,51.38
2018-11-28T10:14:45.189Z,49.63
2018-11-28T10:17:16.079Z,48.94
2018-11-28T10:19:46.706Z,51.71
2018-11-28T10:22:17.445Z,50.72
2018-11-28T10:24:48.261Z,51.37
2018-11-28T10:27:25.854Z,51.10
2018-11-28T10:29:56.873Z,51.65
2018-11-28T10:32:29.675Z,51.81
2018-11-28T10:35:02.422Z,52.25
2018-11-28T10:37:34.641Z,53.85
2018-11-28T10:42:59.618Z,56.81
2018-11-28T10:48:39.110Z,57.63
2018-11-28T10:51:10.084Z,57.97
2018-11-28T10:53:40.883Z,57.74
2018-11-28T10:56:11.414Z,58.39
2018-11-28T10:58:42.288Z,57.29
2018-11-28T11:01:18.447Z,57.79
2018-11-28T11:04:30.943Z,57.04
2018-11-28T11:07:08.409Z,57.13
2018-11-28T11:09:47.862Z,56.87
2018-11-28T11:12:24.352Z,56.03
2018-11-28T11:14:55.753Z,55.76
2018-11-28T11:17:32.306Z,56.44
2018-11-28T11:20:02.988Z,56.55
2018-11-28T11:22:33.693Z,55.88
2018-11-28T11:25:05.070Z,55.41
2018-11-28T11:27:35.671Z,56.63
2018-11-28T11:30:09.527Z,55.65
2018-11-28T11:32:40.097Z,55.84
2018-11-28T11:35:12.640Z,55.96
2018-11-28T11:38:01.220Z,56.37
2018-11-28T11:40:33.080Z,55.75
2018-11-28T11:43:08.739Z,56.22
2018-11-28T11:45:39.882Z,55.73
2018-11-28T11:48:11.259Z,55.59
2018-11-28T11:50:41.798Z,56.15
2018-11-28T11:53:12.625Z,55.88
2018-11-28T11:55:42.979Z,56.20
2018-11-28T11:58:13.902Z,55.06
2018-11-28T12:00:46.444Z,55.40
2018-11-28T12:03:18.329Z,54.56
2018-11-28T12:05:56.708Z,54.59
2018-11-28T12:08:29.972Z,53.90
2018-11-28T12:11:02.207Z,52.43
2018-11-28T12:13:33.118Z,51.35
2018-11-28T12:16:04.069Z,51.56
2018-11-28T12:18:34.799Z,50.18
2018-11-28T12:21:07.448Z,51.04
2018-11-28T12:23:39.217Z,50.53
2018-11-28T12:26:13.119Z,49.87
2018-11-28T12:28:45.970Z,49.60
2018-11-28T12:31:19.620Z,50.42
2018-11-28T12:33:51.106Z,51.10
2018-11-28T12:36:23.537Z,50.91
2018-11-28T12:38:55.325Z,50.58
2018-11-28T12:41:26.899Z,51.75
2018-11-28T12:43:57.466Z,50.68
2018-11-28T12:46:31.788Z,51.05
2018-11-28T12:49:07.027Z,50.68
2018-11-28T12:51:38.205Z,50.08
2018-11-28T12:54:14.480Z,50.45
2018-11-28T12:56:45.236Z,50.10
2018-11-28T12:59:15.587Z,52.01
2018-11-28T13:01:46.521Z,51.59
2018-11-28T13:04:22.165Z,50.56
2018-11-28T13:06:54.022Z,51.75
2018-11-28T13:09:26.488Z,51.23
2018-11-28T13:12:00.077Z,50.40
2018-11-28T13:14:34.395Z,50.20
2018-11-28T13:17:04.818Z,49.93
2018-11-28T13:19:35.728Z,49.74
2018-11-28T13:22:07.188Z,50.97
2018-11-28T13:24:39.544Z,50.95
2018-11-28T13:27:11.311Z,51.21
2018-11-28T13:29:44.475Z,51.07
2018-11-28T13:32:17.898Z,51.44
2018-11-28T13:34:48.923Z,51.88
2018-11-28T13:37:20.765Z,52.22
2018-11-28T13:39:52.592Z,51.51
2018-11-28T13:42:23.573Z,52.59
2018-11-28T13:44:56.828Z,51.95
2018-11-28T13:47:29.685Z,51.89
2018-11-28T13:50:00.381Z,52.45
2018-11-28T13:52:31.423Z,53.12
2018-11-28T13:55:37.812Z,53.00
2018-11-28T13:57:37.807Z,53.22
2018-11-28T14:00:11.273Z,53.05
2018-11-28T14:02:42.140Z,53.67
2018-11-28T14:05:27.993Z,54.24
2018-11-28T14:08:00.577Z,54.22
2018-11-28T14:10:31.231Z,54.55
2018-11-28T14:13:01.797Z,54.70
2018-11-28T14:15:42.541Z,54.97
2018-11-28T14:18:19.074Z,55.34
2018-11-28T14:20:51.144Z,54.92
2018-11-28T14:23:25.588Z,55.47
2018-11-28T14:25:59.698Z,55.48
2018-11-28T14:28:35.621Z,55.24
2018-11-28T14:37:22.841Z,56.23
2018-11-28T14:39:55.751Z,56.49
2018-11-28T14:42:26.773Z,56.76
2018-11-28T14:44:57.293Z,56.45
2018-11-28T14:47:27.842Z,56.37
2018-11-28T14:49:58.365Z,56.90
2018-11-28T14:52:28.951Z,57.75
2018-11-28T14:55:00.070Z,57.60
2018-11-28T14:57:31.187Z,57.56
2018-11-28T15:00:03.457Z,56.82
2018-11-28T15:02:35.164Z,57.00
2018-11-28T15:05:11.203Z,57.44
2018-11-28T15:07:42.035Z,58.20
2018-11-28T15:10:15.076Z,57.81
2018-11-28T15:12:46.800Z,57.70
2018-11-28T15:15:34.855Z,58.10
2018-11-28T15:18:05.934Z,58.53
2018-11-28T15:20:38.988Z,57.93
2018-11-28T15:23:12.770Z,58.24
2018-11-28T15:25:46.058Z,58.33
2018-11-28T15:28:19.022Z,58.35
2018-11-28T15:30:50.202Z,58.84
2018-11-28T15:33:23.259Z,58.98
2018-11-28T15:35:54.114Z,59.40
2018-11-28T15:39:27.876Z,59.17
2018-11-28T15:42:01.827Z,60.16
2018-11-28T15:44:39.135Z,59.59
2018-11-28T15:47:12.481Z,60.28
2018-11-28T15:49:45.445Z,60.33
2018-11-28T15:52:16.127Z,60.38
2018-11-28T15:54:47.563Z,60.66
2018-11-28T15:57:20.038Z,61.02
2018-11-28T15:59:51.174Z,61.13
2018-11-28T16:02:24.602Z,60.84
2018-11-28T16:04:56.186Z,60.97
2018-11-28T16:07:29.181Z,60.64
2018-11-28T16:10:05.352Z,60.15
2018-11-28T16:12:43.890Z,60.19
2018-11-28T16:15:26.529Z,60.25
2018-11-28T16:17:57.134Z,60.75
2018-11-28T16:20:30.665Z,60.89
2018-11-28T16:23:04.185Z,61.12
2018-11-28T16:25:40.407Z,60.58
2018-11-28T16:28:12.469Z,60.80
2018-11-28T16:30:46.462Z,60.70
2018-11-28T16:33:18.447Z,61.16
2018-11-28T16:35:54.914Z,61.43
2018-11-28T16:38:25.995Z,62.10
2018-11-28T16:40:59.412Z,62.26
2018-11-28T16:43:32.510Z,61.51
2018-11-28T16:46:04.404Z,61.32
2018-11-28T16:48:38.414Z,61.18
2018-11-28T16:51:09.161Z,61.28
2018-11-28T16:53:40.788Z,61.60
2018-11-28T16:56:13.565Z,61.71
2018-11-28T16:58:46.363Z,61.73
2018-11-28T17:01:17.366Z,62.90
2018-11-28T17:03:52.969Z,62.61
2018-11-28T17:06:26.625Z,63.41
2018-11-28T17:08:58.710Z,63.41
2018-11-28T17:11:30.551Z,62.92
2018-11-28T17:14:10.953Z,63.10
2018-11-28T17:16:44.972Z,63.08
2018-11-28T17:19:16.545Z,63.69
2018-11-28T17:21:48.917Z,64.27
2018-11-28T17:24:22.021Z,63.64
2018-11-28T17:26:57.729Z,63.75
2018-11-28T17:29:28.671Z,64.56
2018-11-28T17:31:59.399Z,64.48
2018-11-28T17:34:30.699Z,64.68
2018-11-28T17:37:03.742Z,64.78
2018-11-28T17:39:37.443Z,64.65
2018-11-28T17:42:08.708Z,65.40
2018-11-28T17:44:41.698Z,65.27
2018-11-28T17:47:12.303Z,65.41
2018-11-28T17:49:54.771Z,65.55
2018-11-28T17:52:27.091Z,65.27
2018-11-28T17:54:58.618Z,65.35
2018-11-28T17:57:29.466Z,65.28
2018-11-28T18:00:00.053Z,65.12
2018-11-28T18:02:30.706Z,66.33
2018-11-28T18:05:04.005Z,66.12
2018-11-28T18:07:39.207Z,65.93
2018-11-28T18:10:27.332Z,66.18
2018-11-28T18:13:12.661Z,65.15
2018-11-28T18:15:45.814Z,65.14
2018-11-28T18:18:21.309Z,65.47
2018-11-28T18:20:57.086Z,66.17
2018-11-28T18:23:28.720Z,65.39
2018-11-28T18:26:00.494Z,65.26
2018-11-28T18:28:31.197Z,65.64
2018-11-28T18:31:02.359Z,65.78
2018-11-28T18:33:35.036Z,66.63
2018-11-28T18:36:05.850Z,66.47
2018-11-28T18:38:39.968Z,67.12
2018-11-28T18:41:13.100Z,67.37
2018-11-28T18:43:44.109Z,67.53
2018-11-28T18:46:15.073Z,67.43
2018-11-28T18:48:49.044Z,68.06
2018-11-28T18:51:19.990Z,67.74
2018-11-28T18:53:52.217Z,67.36
2018-11-28T18:56:24.072Z,66.74
2018-11-28T18:58:57.007Z,67.35
2018-11-28T19:01:30.053Z,67.59
2018-11-28T19:04:01.163Z,67.03
2018-11-28T19:06:36.498Z,67.08
2018-11-28T19:09:10.728Z,66.66
2018-11-28T19:11:46.756Z,66.80
2018-11-28T19:14:17.921Z,67.15
2018-11-28T19:16:57.098Z,67.00
2018-11-28T19:19:30.347Z,66.79
2018-11-28T19:22:04.298Z,66.51
2018-11-28T19:24:35.399Z,66.75
2018-11-28T19:27:09.853Z,65.92
2018-11-28T19:29:42.209Z,65.21
2018-11-28T19:32:13.479Z,65.94
2018-11-28T19:34:46.335Z,66.16
2018-11-28T19:37:18.194Z,66.85
2018-11-28T19:39:53.942Z,67.12
2018-11-28T19:42:25.365Z,67.77
2018-11-28T19:44:58.421Z,67.40
2018-11-28T19:47:30.892Z,67.45
2018-11-28T19:50:26.982Z,66.85
2018-11-28T19:52:58.866Z,67.07
2018-11-28T19:55:39.103Z,66.24
2018-11-28T19:58:12.041Z,66.00
2018-11-28T20:00:46.690Z,65.01
2018-11-28T20:03:19.021Z,64.24
2018-11-28T20:05:59.948Z,65.99
2018-11-28T20:08:32.574Z,67.85
2018-11-28T20:11:07.171Z,68.17
2018-11-28T20:13:40.473Z,68.52
2018-11-28T20:18:49.023Z,69.23
2018-11-28T20:21:21.415Z,69.01
2018-11-28T20:23:53.848Z,68.26
2018-11-28T20:26:25.821Z,67.70
2018-11-28T20:29:07.923Z,66.07
2018-11-28T20:31:44.219Z,66.55
2018-11-28T20:34:16.533Z,67.61
2018-11-28T20:36:47.819Z,66.76
2018-11-28T20:39:20.313Z,67.57
2018-11-28T20:41:51.736Z,68.69
2018-11-28T20:44:23.768Z,69.10
2018-11-28T20:47:04.164Z,69.72
2018-11-28T20:49:32.916Z,70.02
2018-11-28T20:52:03.742Z,69.39
2018-11-28T20:54:35.027Z,68.33
2018-11-28T20:57:08.155Z,65.54
2018-11-28T20:59:44.857Z,67.62
2018-11-28T21:02:15.672Z,69.31
2018-11-28T21:04:46.771Z,68.41
2018-11-28T21:07:17.397Z,66.94
2018-11-28T21:09:54.079Z,67.50
2018-11-28T21:12:29.720Z,68.73
2018-11-28T21:15:01.673Z,69.85
2018-11-28T21:17:34.081Z,69.95
2018-11-28T21:20:13.287Z,69.74
2018-11-28T21:22:46.326Z,68.41
2018-11-28T21:25:23.792Z,68.25
2018-11-28T21:28:06.642Z,68.34
2018-11-28T21:30:38.236Z,69.23
2018-11-28T21:33:13.334Z,70.35
2018-11-28T21:35:48.798Z,70.87
2018-11-28T21:38:20.331Z,71.56
2018-11-28T21:40:53.165Z,71.19
2018-11-28T21:43:23.968Z,71.68
2018-11-28T21:45:57.528Z,72.42
2018-11-28T21:48:31.422Z,72.48
2018-11-28T21:51:03.889Z,72.10
2018-11-28T21:53:34.961Z,71.54
2018-11-28T21:56:08.099Z,71.36
2018-11-28T21:58:40.878Z,71.59
2018-11-28T22:01:13.089Z,71.46
2018-11-28T22:03:43.474Z,71.02
2018-11-28T22:06:20.667Z,71.13
2018-11-28T22:08:53.428Z,71.90
2018-11-28T22:11:29.824Z,72.72
2018-11-28T22:14:01.872Z,73.03
2018-11-28T22:16:32.865Z,72.70
2018-11-28T22:19:06.550Z,73.19
2018-11-28T22:21:40.050Z,73.36
2018-11-28T22:24:14.266Z,73.17
2018-11-28T22:26:47.823Z,73.50
2018-11-28T22:29:23.772Z,73.39
2018-11-28T22:31:54.478Z,73.50
2018-11-28T22:34:25.162Z,73.20
2018-11-28T22:36:57.989Z,72.50
2018-11-28T22:39:32.835Z,71.50
2018-11-28T22:42:05.465Z,71.29
2018-11-28T22:44:36.999Z,71.21
2018-11-28T22:47:09.801Z,71.97
2018-11-28T22:49:43.202Z,71.60
2018-11-28T22:52:16.790Z,71.79
2018-11-28T22:54:48.215Z,72.33
2018-11-28T22:57:20.612Z,73.71
2018-11-28T22:59:54.867Z,73.44
2018-11-28T23:02:39.467Z,73.14
2018-11-28T23:05:14.112Z,72.50
2018-11-28T23:07:45.362Z,70.73
2018-11-28T23:10:26.807Z,68.55
2018-11-28T23:12:59.165Z,67.29
2018-11-28T23:15:31.277Z,66.36
2018-11-28T23:18:07.890Z,64.60
2018-11-28T23:20:40.370Z,63.48
2018-11-28T23:23:14.187Z,63.12
2018-11-28T23:25:45.459Z,62.66
2018-11-28T23:28:18.315Z,65.25
2018-11-28T23:30:49.275Z,66.88
2018-11-28T23:33:20.576Z,68.18
2018-11-28T23:35:53.407Z,68.38
2018-11-28T23:38:24.284Z,66.63
2018-11-28T23:40:57.004Z,66.54
2018-11-28T23:43:27.503Z,67.02
2018-11-28T23:45:58.018Z,65.19
2018-11-28T23:48:28.859Z,65.13
2018-11-28T23:50:59.654Z,66.03
2018-11-28T23:53:33.014Z,68.30
2018-11-28T23:56:06.569Z,69.12
2018-11-28T23:58:40.323Z,66.38
